createdAt,value
2018-07-06T00:00:35.312Z,18.36
2018-07-06T00:03:15.087Z,18.38
2018-07-06T00:05:54.742Z,18.49
2018-07-06T00:08:34.508Z,18.50
2018-07-06T00:11:14.259Z,18.54
2018-07-06T00:13:54.170Z,18.59
2018-07-06T00:16:34.040Z,18.61
2018-07-06T00:19:13.716Z,18.38
2018-07-06T00:21:53.451Z,18.46
2018-07-06T00:24:33.079Z,18.64
2018-07-06T00:27:12.971Z,18.62
2018-07-06T00:29:52.692Z,18.71
2018-07-06T00:32:32.498Z,18.69
2018-07-06T00:35:12.216Z,18.60
2018-07-06T00:37:52.002Z,18.74
2018-07-06T00:40:31.818Z,18.75
2018-07-06T00:43:11.594Z,18.79
2018-07-06T00:45:51.356Z,18.74
2018-07-06T00:48:31.139Z,18.63
2018-07-06T00:51:10.855Z,18.58
2018-07-06T00:53:50.586Z,18.63
2018-07-06T00:56:30.193Z,18.65
2018-07-06T00:59:09.975Z,18.77
2018-07-06T01:01:49.847Z,18.67
2018-07-06T01:04:29.411Z,18.75
2018-07-06T01:07:08.958Z,18.85
2018-07-06T01:09:48.571Z,18.85
2018-07-06T01:13:31.191Z,18.78
2018-07-06T01:16:10.755Z,18.65
2018-07-06T01:18:50.497Z,18.29
2018-07-06T01:21:30.100Z,18.23
2018-07-06T01:24:09.835Z,17.96
2018-07-06T01:26:49.682Z,17.86
2018-07-06T01:29:29.343Z,17.86
2018-07-06T01:32:09.046Z,17.89
2018-07-06T01:34:48.779Z,17.95
2018-07-06T01:37:28.621Z,17.79
2018-07-06T01:40:08.444Z,17.57
2018-07-06T01:42:48.224Z,17.51
2018-07-06T01:45:27.881Z,17.54
2018-07-06T01:48:07.452Z,17.45
2018-07-06T01:50:47.285Z,17.33
2018-07-06T01:53:27.027Z,17.53
2018-07-06T01:56:06.839Z,17.63
2018-07-06T01:58:46.588Z,17.67
2018-07-06T02:01:26.243Z,17.65
2018-07-06T02:04:05.787Z,17.65
2018-07-06T02:06:45.675Z,17.80
2018-07-06T02:09:25.526Z,17.55
2018-07-06T02:12:05.222Z,17.41
2018-07-06T02:14:44.786Z,17.47
2018-07-06T02:17:24.491Z,17.32
2018-07-06T02:20:04.040Z,17.19
2018-07-06T02:22:43.782Z,17.17
2018-07-06T02:25:23.369Z,17.08
2018-07-06T02:28:02.938Z,17.08
2018-07-06T02:30:42.786Z,17.07
2018-07-06T02:33:22.669Z,16.98
2018-07-06T02:36:02.462Z,16.92
2018-07-06T02:38:42.227Z,16.89
2018-07-06T02:41:22.111Z,16.82
2018-07-06T02:44:01.814Z,16.81
2018-07-06T02:46:41.611Z,16.97
2018-07-06T02:49:21.191Z,17.13
2018-07-06T02:52:00.982Z,17.14
2018-07-06T02:54:40.736Z,17.09
2018-07-06T02:57:20.536Z,17.13
2018-07-06T03:00:00.411Z,17.27
2018-07-06T03:02:40.171Z,17.57
2018-07-06T03:05:19.895Z,17.64
2018-07-06T03:07:59.616Z,17.72
2018-07-06T03:10:39.196Z,17.75
2018-07-06T03:13:18.999Z,17.67
2018-07-06T03:15:58.736Z,17.71
2018-07-06T03:18:38.436Z,17.81
2018-07-06T03:21:18.102Z,17.62
2018-07-06T03:23:57.651Z,17.48
2018-07-06T03:26:37.411Z,17.36
2018-07-06T03:29:17.457Z,17.19
2018-07-06T03:31:57.077Z,16.98
2018-07-06T03:34:36.719Z,17.10
2018-07-06T03:37:16.553Z,17.12
2018-07-06T03:39:56.300Z,17.02
2018-07-06T03:42:36.028Z,17.12
2018-07-06T03:45:15.763Z,17.13
2018-07-06T03:47:55.704Z,17.01
2018-07-06T03:50:35.548Z,16.97
2018-07-06T03:53:15.283Z,16.91
2018-07-06T03:55:55.133Z,16.88
2018-07-06T03:58:34.831Z,16.93
2018-07-06T04:01:14.487Z,16.98
2018-07-06T04:03:54.203Z,17.12
2018-07-06T04:06:33.930Z,17.26
2018-07-06T04:09:13.793Z,17.27
2018-07-06T04:11:53.632Z,17.34
2018-07-06T04:14:33.504Z,17.43
2018-07-06T04:17:13.351Z,17.44
2018-07-06T04:19:53.093Z,17.53
2018-07-06T04:22:32.777Z,17.54
2018-07-06T04:25:12.564Z,17.53
2018-07-06T04:27:52.316Z,17.67
2018-07-06T04:30:31.949Z,17.87
2018-07-06T04:33:11.823Z,18.04
2018-07-06T04:35:51.790Z,18.20
2018-07-06T04:38:31.615Z,18.34
2018-07-06T04:41:11.175Z,18.43
2018-07-06T04:43:51.161Z,18.36
2018-07-06T04:46:31.264Z,18.30
2018-07-06T04:49:10.758Z,18.34
2018-07-06T04:51:50.477Z,18.15
2018-07-06T04:54:30.347Z,18.20
2018-07-06T04:57:10.120Z,18.23
2018-07-06T04:59:49.977Z,18.21
2018-07-06T05:02:29.714Z,18.52
2018-07-06T05:05:09.644Z,18.60
2018-07-06T05:07:49.164Z,18.44
2018-07-06T05:10:28.975Z,18.71
2018-07-06T05:13:08.811Z,18.89
2018-07-06T05:15:48.445Z,19.18
2018-07-06T05:18:28.203Z,19.63
2018-07-06T05:21:07.975Z,20.07
2018-07-06T05:23:47.916Z,20.49
2018-07-06T05:26:27.631Z,21.11
2018-07-06T05:29:07.195Z,21.49
2018-07-06T05:31:46.984Z,21.62
2018-07-06T05:34:26.687Z,22.04
2018-07-06T05:37:06.787Z,22.44
2018-07-06T05:39:46.649Z,22.93
2018-07-06T05:42:26.298Z,23.03
2018-07-06T05:45:06.033Z,23.47
2018-07-06T05:47:45.834Z,23.61
2018-07-06T05:50:25.533Z,23.72
2018-07-06T05:53:05.246Z,24.07
2018-07-06T05:55:44.958Z,24.43
2018-07-06T05:58:24.748Z,24.91
2018-07-06T06:01:04.488Z,24.40
2018-07-06T06:03:44.260Z,24.50
2018-07-06T06:06:24.187Z,24.96
2018-07-06T06:08:51.598Z,25.29
2018-07-06T06:11:20.298Z,25.31
2018-07-06T06:13:48.967Z,25.03
2018-07-06T06:16:17.613Z,24.89
2018-07-06T06:18:46.349Z,25.22
2018-07-06T06:21:14.914Z,25.39
2018-07-06T06:23:43.573Z,25.29
2018-07-06T06:26:12.547Z,25.55
2018-07-06T06:28:41.263Z,25.97
2018-07-06T06:31:10.003Z,26.36
2018-07-06T06:33:39.081Z,26.28
2018-07-06T06:36:07.729Z,26.62
2018-07-06T06:38:36.424Z,26.42
2018-07-06T06:41:05.076Z,26.34
2018-07-06T06:43:33.783Z,26.10
2018-07-06T06:46:02.460Z,26.73
2018-07-06T06:48:31.119Z,26.65
2018-07-06T06:50:59.888Z,26.51
2018-07-06T06:53:28.589Z,27.26
2018-07-06T06:55:57.278Z,27.24
2018-07-06T06:58:26.080Z,27.71
2018-07-06T07:00:55.015Z,27.50
2018-07-06T07:03:24.191Z,27.27
2018-07-06T07:05:52.911Z,27.57
2018-07-06T07:08:21.842Z,27.77
2018-07-06T07:10:50.607Z,27.76
2018-07-06T07:13:19.420Z,27.60
2018-07-06T07:15:48.195Z,27.87
2018-07-06T07:18:16.902Z,27.62
2018-07-06T07:20:45.693Z,28.27
2018-07-06T07:23:14.689Z,29.20
2018-07-06T07:25:43.763Z,29.52
2018-07-06T07:28:12.570Z,28.94
2018-07-06T07:30:41.282Z,29.62
2018-07-06T07:33:10.050Z,29.58
2018-07-06T07:35:39.139Z,29.56
2018-07-06T07:38:07.839Z,29.69
2018-07-06T07:40:36.988Z,29.69
2018-07-06T07:43:05.692Z,29.76
2018-07-06T07:45:34.403Z,29.71
2018-07-06T07:48:03.206Z,30.43
2018-07-06T07:50:31.859Z,30.75
2018-07-06T07:53:11.668Z,29.72
2018-07-06T07:55:40.436Z,29.19
2018-07-06T07:58:09.178Z,28.90
2018-07-06T08:00:37.937Z,29.03
2018-07-06T08:03:06.834Z,29.50
2018-07-06T08:05:35.570Z,29.30
2018-07-06T08:08:04.313Z,30.12
2018-07-06T08:10:33.092Z,30.10
2018-07-06T08:13:01.939Z,30.21
2018-07-06T08:15:30.600Z,30.60
2018-07-06T08:17:59.244Z,31.70
2018-07-06T08:20:27.892Z,32.19
2018-07-06T08:22:56.799Z,31.58
2018-07-06T08:25:25.616Z,31.02
2018-07-06T08:27:55.434Z,31.40
2018-07-06T08:30:24.191Z,31.71
2018-07-06T08:32:52.992Z,30.94
2018-07-06T08:35:32.895Z,30.77
2018-07-06T08:38:06.567Z,30.75
2018-07-06T08:40:35.420Z,30.60
2018-07-06T08:43:05.308Z,31.74
2018-07-06T08:45:34.564Z,31.85
2018-07-06T08:48:03.311Z,32.67
2018-07-06T08:50:32.067Z,33.16
2018-07-06T08:53:00.714Z,32.33
2018-07-06T08:55:29.496Z,31.65
2018-07-06T08:57:58.906Z,31.38
2018-07-06T09:00:27.532Z,31.98
2018-07-06T09:02:56.146Z,32.33
2018-07-06T09:05:24.777Z,32.19
2018-07-06T09:07:53.488Z,32.30
2018-07-06T09:10:22.162Z,32.36
2018-07-06T09:12:50.815Z,32.40
2018-07-06T09:15:19.456Z,32.92
2018-07-06T09:17:48.073Z,33.57
2018-07-06T09:20:16.954Z,33.71
2018-07-06T09:22:45.434Z,34.08
2018-07-06T09:25:14.080Z,33.51
2018-07-06T09:27:42.706Z,33.40
2018-07-06T09:30:11.747Z,32.92
2018-07-06T09:32:40.390Z,33.02
2018-07-06T09:35:09.008Z,32.62
2018-07-06T09:37:37.656Z,33.54
2018-07-06T09:40:06.288Z,33.71
2018-07-06T09:42:34.950Z,33.24
2018-07-06T09:45:03.650Z,33.27
2018-07-06T09:47:32.318Z,33.42
2018-07-06T09:50:00.950Z,32.82
2018-07-06T09:52:29.624Z,32.51
2018-07-06T09:54:58.583Z,32.86
2018-07-06T09:57:27.285Z,32.98
2018-07-06T09:59:55.948Z,32.92
2018-07-06T10:02:24.571Z,33.83
2018-07-06T10:04:53.521Z,33.44
2018-07-06T10:07:22.176Z,33.90
2018-07-06T10:09:50.862Z,34.81
2018-07-06T10:12:19.419Z,35.20
2018-07-06T10:14:48.036Z,34.31
2018-07-06T10:17:16.699Z,33.63
2018-07-06T10:19:45.406Z,34.27
2018-07-06T10:22:14.021Z,34.62
2018-07-06T10:24:42.666Z,35.21
2018-07-06T10:27:11.433Z,35.51
2018-07-06T10:29:51.057Z,35.00
2018-07-06T10:32:24.213Z,34.74
2018-07-06T10:34:52.829Z,35.16
2018-07-06T10:37:21.723Z,35.76
2018-07-06T10:39:50.990Z,35.65
2018-07-06T10:42:19.723Z,34.12
2018-07-06T10:44:48.533Z,34.20
2018-07-06T10:47:17.379Z,33.94
2018-07-06T10:49:46.097Z,33.37
2018-07-06T10:52:16.435Z,32.48
2018-07-06T10:54:45.617Z,31.62
2018-07-06T10:57:14.296Z,31.20
2018-07-06T10:59:42.916Z,30.52
2018-07-06T11:02:11.656Z,30.22
2018-07-06T11:04:40.297Z,30.55
2018-07-06T11:07:08.918Z,31.72
2018-07-06T11:09:37.842Z,33.17
2018-07-06T11:12:06.524Z,33.97
2018-07-06T11:14:35.208Z,33.53
2018-07-06T11:17:04.124Z,33.43
2018-07-06T11:19:33.115Z,33.28
2018-07-06T11:22:01.804Z,32.18
2018-07-06T11:24:30.455Z,31.75
2018-07-06T11:26:59.087Z,31.55
2018-07-06T11:29:27.726Z,32.34
2018-07-06T11:31:56.359Z,33.03
2018-07-06T11:34:24.975Z,33.84
2018-07-06T11:36:53.656Z,34.61
2018-07-06T11:39:22.727Z,34.45
2018-07-06T11:41:51.392Z,34.13
2018-07-06T11:44:20.448Z,34.42
2018-07-06T11:46:49.138Z,34.00
2018-07-06T11:49:17.781Z,33.35
2018-07-06T11:51:46.475Z,33.14
2018-07-06T11:54:15.099Z,33.07
2018-07-06T11:56:43.798Z,33.08
2018-07-06T11:59:13.238Z,33.67
2018-07-06T12:01:41.973Z,34.13
2018-07-06T12:04:11.165Z,34.23
2018-07-06T12:06:39.800Z,34.23
2018-07-06T12:09:08.549Z,33.59
2018-07-06T12:11:37.326Z,33.18
2018-07-06T12:14:06.017Z,32.37
2018-07-06T12:16:34.728Z,32.60
2018-07-06T12:19:03.739Z,31.70
2018-07-06T12:21:32.474Z,31.14
2018-07-06T12:24:01.117Z,31.33
2018-07-06T12:26:29.787Z,30.96
2018-07-06T12:28:58.423Z,30.85
2018-07-06T12:31:27.056Z,31.09
2018-07-06T12:33:55.741Z,31.05
2018-07-06T12:36:24.448Z,30.87
2018-07-06T12:38:53.138Z,30.74
2018-07-06T12:41:22.582Z,30.75
2018-07-06T12:43:51.348Z,30.39
2018-07-06T12:46:20.013Z,29.63
2018-07-06T12:48:48.784Z,29.38
2018-07-06T12:51:17.423Z,29.77
2018-07-06T12:53:46.120Z,29.83
2018-07-06T12:56:15.887Z,29.84
2018-07-06T12:58:44.721Z,29.88
2018-07-06T13:01:13.321Z,29.79
2018-07-06T13:03:42.007Z,29.72
2018-07-06T13:06:10.720Z,29.70
2018-07-06T13:08:39.398Z,29.76
2018-07-06T13:11:08.092Z,29.87
2018-07-06T13:13:36.748Z,30.06
2018-07-06T13:16:05.803Z,30.15
2018-07-06T13:18:34.595Z,30.44
2018-07-06T13:21:03.316Z,30.61
2018-07-06T13:23:32.047Z,30.83
2018-07-06T13:26:00.824Z,30.90
2018-07-06T13:28:29.525Z,30.79
2018-07-06T13:30:58.279Z,30.80
2018-07-06T13:33:27.071Z,30.51
2018-07-06T13:35:55.704Z,30.19
2018-07-06T13:38:24.335Z,30.12
2018-07-06T13:40:53.076Z,30.08
2018-07-06T13:43:22.419Z,29.71
2018-07-06T13:45:51.132Z,29.36
2018-07-06T13:48:19.875Z,29.30
2018-07-06T13:50:48.533Z,29.11
2018-07-06T13:53:17.216Z,28.78
2018-07-06T13:55:45.907Z,28.37
2018-07-06T13:58:14.622Z,27.96
2018-07-06T14:00:43.334Z,27.93
2018-07-06T14:03:12.092Z,27.85
2018-07-06T14:05:40.766Z,28.12
2018-07-06T14:08:09.419Z,28.14
2018-07-06T14:10:38.416Z,27.89
2018-07-06T14:13:07.141Z,27.63
2018-07-06T14:15:35.833Z,27.73
2018-07-06T14:18:04.620Z,27.70
2018-07-06T14:20:33.284Z,27.62
2018-07-06T14:23:01.998Z,27.40
2018-07-06T14:25:30.679Z,27.24
2018-07-06T14:27:59.398Z,27.07
2018-07-06T14:30:28.150Z,26.75
2018-07-06T14:32:56.816Z,26.66
2018-07-06T14:35:25.559Z,26.92
2018-07-06T14:37:54.235Z,27.16
2018-07-06T14:40:22.895Z,27.19
2018-07-06T14:42:51.555Z,27.24
2018-07-06T14:45:20.255Z,27.29
2018-07-06T14:47:49.012Z,27.15
2018-07-06T14:50:17.825Z,26.94
2018-07-06T14:52:46.532Z,26.71
2018-07-06T14:55:15.396Z,26.71
2018-07-06T14:57:44.145Z,26.59
2018-07-06T15:00:13.004Z,26.49
2018-07-06T15:02:41.655Z,26.36
2018-07-06T15:05:10.436Z,26.25
2018-07-06T15:07:39.199Z,26.01
2018-07-06T15:10:07.927Z,26.08
2018-07-06T15:12:36.742Z,26.09
2018-07-06T15:15:05.439Z,25.97
2018-07-06T15:17:34.132Z,26.07
2018-07-06T15:20:02.875Z,25.98
2018-07-06T15:22:31.588Z,26.02
2018-07-06T15:25:00.318Z,25.99
2018-07-06T15:27:29.022Z,25.90
2018-07-06T15:29:57.723Z,25.92
2018-07-06T15:32:26.437Z,25.80
2018-07-06T15:34:55.131Z,25.74
2018-07-06T15:37:23.940Z,25.84
2018-07-06T15:39:52.626Z,25.84
2018-07-06T15:42:22.530Z,25.80
2018-07-06T15:44:51.223Z,25.78
2018-07-06T15:47:19.925Z,25.76
2018-07-06T15:49:48.745Z,25.82
2018-07-06T15:52:17.901Z,25.71
2018-07-06T15:54:47.486Z,25.69
2018-07-06T15:57:16.681Z,25.66
2018-07-06T15:59:45.274Z,25.68
2018-07-06T16:02:14.052Z,25.66
2018-07-06T16:04:42.717Z,25.55
2018-07-06T16:07:11.468Z,25.52
2018-07-06T16:09:40.130Z,25.54
2018-07-06T16:12:08.914Z,25.63
2018-07-06T16:14:37.615Z,25.70
2018-07-06T16:17:06.326Z,25.74
2018-07-06T16:19:35.106Z,25.82
2018-07-06T16:22:04.315Z,25.82
2018-07-06T16:24:32.976Z,25.87
2018-07-06T16:27:01.677Z,25.90
2018-07-06T16:29:30.330Z,25.87
2018-07-06T16:31:59.096Z,25.74
2018-07-06T16:34:27.827Z,25.67
2018-07-06T16:36:56.572Z,25.52
2018-07-06T16:39:25.234Z,25.48
2018-07-06T16:41:54.027Z,25.43
2018-07-06T16:44:22.740Z,24.00
2018-07-06T16:46:51.554Z,25.31
2018-07-06T16:49:20.199Z,25.31
2018-07-06T16:51:49.303Z,25.20
2018-07-06T16:54:18.035Z,24.93
2018-07-06T16:56:46.730Z,25.04
2018-07-06T16:59:15.467Z,25.02
2018-07-06T17:01:44.249Z,24.96
2018-07-06T17:04:12.918Z,24.77
2018-07-06T17:06:41.634Z,24.63
2018-07-06T17:09:10.373Z,24.65
2018-07-06T17:11:39.210Z,24.64
2018-07-06T17:14:07.998Z,24.58
2018-07-06T17:16:36.670Z,24.46
2018-07-06T17:19:05.334Z,24.40
2018-07-06T17:21:34.918Z,24.31
2018-07-06T17:24:03.599Z,24.28
2018-07-06T17:26:32.276Z,24.26
2018-07-06T17:29:00.925Z,24.22
2018-07-06T17:31:29.627Z,24.14
2018-07-06T17:33:58.459Z,24.09
2018-07-06T17:36:27.345Z,24.03
2018-07-06T17:38:56.081Z,23.97
2018-07-06T17:41:24.869Z,23.88
2018-07-06T17:43:53.650Z,23.82
2018-07-06T17:46:22.374Z,23.86
2018-07-06T17:48:51.075Z,23.85
2018-07-06T17:51:19.772Z,23.79
2018-07-06T17:53:48.466Z,23.72
2018-07-06T17:56:17.344Z,23.66
2018-07-06T17:58:46.627Z,23.63
2018-07-06T18:01:16.196Z,23.68
2018-07-06T18:03:45.435Z,23.64
2018-07-06T18:06:14.147Z,23.60
2018-07-06T18:08:43.622Z,23.58
2018-07-06T18:11:13.322Z,23.58
2018-07-06T18:13:42.087Z,23.48
2018-07-06T18:16:11.679Z,23.45
2018-07-06T18:18:40.743Z,23.43
2018-07-06T18:21:09.823Z,23.35
2018-07-06T18:23:38.904Z,23.44
2018-07-06T18:26:07.674Z,23.45
2018-07-06T18:28:36.571Z,23.45
2018-07-06T18:31:05.593Z,23.43
2018-07-06T18:33:34.487Z,23.37
2018-07-06T18:36:03.585Z,23.26
2018-07-06T18:38:32.774Z,23.12
2018-07-06T18:41:01.978Z,21.93
2018-07-06T18:43:30.732Z,22.93
2018-07-06T18:45:59.391Z,22.82
2018-07-06T18:48:28.118Z,22.84
2018-07-06T18:50:57.426Z,22.75
2018-07-06T18:53:26.199Z,22.68
2018-07-06T18:55:54.913Z,22.51
2018-07-06T18:58:23.669Z,22.49
2018-07-06T19:00:52.514Z,22.46
2018-07-06T19:03:21.316Z,22.48
2018-07-06T19:05:50.007Z,22.35
2018-07-06T19:08:18.731Z,22.25
2018-07-06T19:10:47.515Z,22.22
2018-07-06T19:13:16.214Z,22.18
2018-07-06T19:15:45.426Z,22.16
2018-07-06T19:18:14.181Z,22.14
2018-07-06T19:20:42.955Z,22.21
2018-07-06T19:23:11.631Z,22.21
2018-07-06T19:25:40.347Z,22.21
2018-07-06T19:28:09.023Z,22.23
2018-07-06T19:30:37.786Z,22.20
2018-07-06T19:33:06.516Z,22.14
2018-07-06T19:35:35.327Z,21.35
2018-07-06T19:38:04.004Z,22.19
2018-07-06T19:40:32.687Z,22.24
2018-07-06T19:43:01.340Z,22.20
2018-07-06T19:45:30.023Z,22.15
2018-07-06T19:47:58.721Z,22.08
2018-07-06T19:50:27.652Z,22.12
2018-07-06T19:52:56.330Z,22.18
2018-07-06T19:55:24.966Z,22.21
2018-07-06T19:57:53.703Z,22.16
2018-07-06T20:00:23.614Z,22.05
2018-07-06T20:02:54.574Z,21.94
2018-07-06T20:05:23.283Z,21.77
2018-07-06T20:07:52.935Z,21.62
2018-07-06T20:10:21.603Z,21.55
2018-07-06T20:12:50.310Z,21.55
2018-07-06T20:15:20.631Z,21.49
2018-07-06T20:17:50.506Z,21.55
2018-07-06T20:20:19.298Z,21.65
2018-07-06T20:22:48.123Z,21.68
2018-07-06T20:25:17.666Z,21.69
2018-07-06T20:27:46.408Z,21.66
2018-07-06T20:30:15.138Z,21.62
2018-07-06T20:32:44.234Z,21.61
2018-07-06T20:35:12.939Z,21.56
2018-07-06T20:37:41.616Z,21.44
2018-07-06T20:40:10.403Z,21.36
2018-07-06T20:42:39.129Z,21.47
2018-07-06T20:45:07.907Z,21.57
2018-07-06T20:47:36.901Z,21.58
2018-07-06T20:50:05.943Z,21.57
2018-07-06T20:52:34.617Z,21.49
2018-07-06T20:55:03.388Z,21.34
2018-07-06T20:57:32.144Z,21.31
2018-07-06T21:00:00.861Z,21.00
2018-07-06T21:02:29.671Z,21.07
2018-07-06T21:04:58.323Z,20.89
2018-07-06T21:07:26.959Z,20.68
2018-07-06T21:09:55.633Z,20.65
2018-07-06T21:12:24.348Z,20.67
2018-07-06T21:14:53.049Z,20.67
2018-07-06T21:17:22.090Z,20.55
2018-07-06T21:19:50.766Z,20.54
2018-07-06T21:22:19.558Z,20.60
2018-07-06T21:24:48.204Z,20.62
2018-07-06T21:27:16.850Z,20.69
2018-07-06T21:29:45.482Z,20.75
2018-07-06T21:32:14.224Z,20.78
2018-07-06T21:34:42.922Z,20.86
2018-07-06T21:37:11.646Z,20.91
2018-07-06T21:39:40.358Z,20.88
2018-07-06T21:42:09.111Z,20.88
2018-07-06T21:44:37.832Z,20.88
2018-07-06T21:47:06.498Z,20.92
2018-07-06T21:49:35.248Z,20.89
2018-07-06T21:52:03.993Z,20.87
2018-07-06T21:54:32.596Z,20.84
2018-07-06T21:57:01.271Z,20.85
2018-07-06T21:59:29.941Z,20.93
2018-07-06T22:01:58.599Z,20.97
2018-07-06T22:04:27.278Z,20.98
2018-07-06T22:06:55.954Z,20.99
2018-07-06T22:09:24.681Z,21.01
2018-07-06T22:11:53.390Z,21.03
2018-07-06T22:14:22.116Z,21.03
2018-07-06T22:16:50.835Z,21.00
2018-07-06T22:19:19.580Z,20.94
2018-07-06T22:21:48.316Z,20.95
2018-07-06T22:24:17.026Z,20.91
2018-07-06T22:26:45.865Z,20.90
2018-07-06T22:29:14.547Z,20.84
2018-07-06T22:31:43.232Z,20.84
2018-07-06T22:34:11.906Z,20.79
2018-07-06T22:36:40.648Z,20.72
2018-07-06T22:39:09.644Z,20.65
2018-07-06T22:41:38.347Z,20.48
2018-07-06T22:44:07.112Z,20.09
2018-07-06T22:46:35.883Z,20.36
2018-07-06T22:49:04.593Z,20.24
2018-07-06T22:51:33.256Z,20.20
2018-07-06T22:54:02.159Z,20.24
2018-07-06T22:56:30.820Z,20.26
2018-07-06T22:58:59.494Z,20.28
2018-07-06T23:01:28.250Z,20.19
2018-07-06T23:03:56.966Z,20.16
2018-07-06T23:06:25.724Z,20.15
2018-07-06T23:08:54.372Z,20.13
2018-07-06T23:11:23.114Z,20.12
2018-07-06T23:13:51.828Z,20.11
2018-07-06T23:16:20.555Z,20.05
2018-07-06T23:18:49.259Z,20.06
2018-07-06T23:21:17.970Z,20.05
2018-07-06T23:23:46.721Z,20.02
2018-07-06T23:26:15.388Z,20.06
2018-07-06T23:28:44.084Z,20.07
2018-07-06T23:31:13.380Z,20.08
2018-07-06T23:33:42.040Z,20.13
2018-07-06T23:36:10.691Z,20.17
2018-07-06T23:38:39.391Z,20.20
2018-07-06T23:41:08.031Z,20.23
2018-07-06T23:43:36.738Z,20.24
2018-07-06T23:46:05.451Z,20.22
2018-07-06T23:48:34.144Z,20.17
2018-07-06T23:51:02.804Z,20.21
2018-07-06T23:53:31.480Z,20.19
2018-07-06T23:56:00.121Z,20.21
2018-07-06T23:58:28.754Z,20.19
